sensor_id;sensor_type;location;lat;lon;timestamp;P1;durP1;ratioP1;P2;durP2;ratioP2
46040;SDS011;31779;49.124;19.190;2022-11-15T00:01:58;73.28;;;46.13;;
46040;SDS011;31779;49.124;19.190;2022-11-15T00:04:45;71.45;;;47.05;;
46040;SDS011;31779;49.124;19.190;2022-11-15T00:07:31;76.97;;;49.80;;
46040;SDS011;31779;49.124;19.190;2022-11-15T00:10:37;77.10;;;44.17;;
46040;SDS011;31779;49.124;19.190;2022-11-15T00:13:23;79.03;;;49.88;;
46040;SDS011;31779;49.124;19.190;2022-11-15T00:16:09;67.18;;;44.33;;
46040;SDS011;31779;49.124;19.190;2022-11-15T00:18:56;76.78;;;45.75;;
46040;SDS011;31779;49.124;19.190;2022-11-15T00:21:43;110.32;;;50.00;;
46040;SDS011;31779;49.124;19.190;2022-11-15T00:24:29;93.78;;;52.10;;
46040;SDS011;31779;49.124;19.190;2022-11-15T00:27:16;62.38;;;38.65;;
46040;SDS011;31779;49.124;19.190;2022-11-15T00:30:02;73.72;;;45.90;;
46040;SDS011;31779;49.124;19.190;2022-11-15T00:32:49;126.78;;;50.33;;
46040;SDS011;31779;49.124;19.190;2022-11-15T00:35:35;88.57;;;43.92;;
46040;SDS011;31779;49.124;19.190;2022-11-15T00:38:22;85.97;;;44.00;;
46040;SDS011;31779;49.124;19.190;2022-11-15T00:41:08;72.53;;;43.53;;
46040;SDS011;31779;49.124;19.190;2022-11-15T00:43:55;67.80;;;42.97;;
46040;SDS011;31779;49.124;19.190;2022-11-15T00:46:41;83.15;;;45.45;;
46040;SDS011;31779;49.124;19.190;2022-11-15T00:49:27;62.20;;;39.90;;
46040;SDS011;31779;49.124;19.190;2022-11-15T00:52:13;63.13;;;40.13;;
46040;SDS011;31779;49.124;19.190;2022-11-15T00:54:59;69.05;;;41.75;;
46040;SDS011;31779;49.124;19.190;2022-11-15T00:57:45;73.18;;;42.17;;
46040;SDS011;31779;49.124;19.190;2022-11-15T01:00:32;80.53;;;42.83;;
46040;SDS011;31779;49.124;19.190;2022-11-15T01:03:18;66.05;;;40.67;;
46040;SDS011;31779;49.124;19.190;2022-11-15T01:06:05;105.07;;;48.00;;
46040;SDS011;31779;49.124;19.190;2022-11-15T01:08:52;73.90;;;42.20;;
46040;SDS011;31779;49.124;19.190;2022-11-15T01:11:38;74.93;;;43.60;;
46040;SDS011;31779;49.124;19.190;2022-11-15T01:14:24;71.55;;;39.60;;
46040;SDS011;31779;49.124;19.190;2022-11-15T01:17:10;61.05;;;40.03;;
46040;SDS011;31779;49.124;19.190;2022-11-15T01:19:56;53.72;;;37.13;;
46040;SDS011;31779;49.124;19.190;2022-11-15T01:22:42;62.58;;;40.13;;
46040;SDS011;31779;49.124;19.190;2022-11-15T01:25:29;73.90;;;40.45;;
46040;SDS011;31779;49.124;19.190;2022-11-15T01:28:15;90.22;;;43.75;;
46040;SDS011;31779;49.124;19.190;2022-11-15T01:31:01;73.25;;;40.83;;
46040;SDS011;31779;49.124;19.190;2022-11-15T01:33:49;163.45;;;56.67;;
46040;SDS011;31779;49.124;19.190;2022-11-15T01:36:36;71.55;;;39.67;;
46040;SDS011;31779;49.124;19.190;2022-11-15T01:39:22;70.55;;;38.08;;
46040;SDS011;31779;49.124;19.190;2022-11-15T01:42:14;64.68;;;41.17;;
46040;SDS011;31779;49.124;19.190;2022-11-15T01:45:01;62.05;;;37.35;;
46040;SDS011;31779;49.124;19.190;2022-11-15T01:47:48;68.07;;;43.00;;
46040;SDS011;31779;49.124;19.190;2022-11-15T01:50:39;62.85;;;41.15;;
46040;SDS011;31779;49.124;19.190;2022-11-15T01:53:25;52.45;;;37.15;;
46040;SDS011;31779;49.124;19.190;2022-11-15T01:56:16;56.20;;;36.10;;
46040;SDS011;31779;49.124;19.190;2022-11-15T01:59:06;106.65;;;48.20;;
46040;SDS011;31779;49.124;19.190;2022-11-15T02:01:54;67.63;;;40.30;;
46040;SDS011;31779;49.124;19.190;2022-11-15T02:04:42;60.60;;;37.15;;
46040;SDS011;31779;49.124;19.190;2022-11-15T02:07:30;67.85;;;44.25;;
46040;SDS011;31779;49.124;19.190;2022-11-15T02:10:19;56.60;;;38.08;;
46040;SDS011;31779;49.124;19.190;2022-11-15T02:13:08;59.43;;;39.30;;
46040;SDS011;31779;49.124;19.190;2022-11-15T02:26:36;69.85;;;40.90;;
46040;SDS011;31779;49.124;19.190;2022-11-15T02:29:11;56.20;;;35.97;;
46040;SDS011;31779;49.124;19.190;2022-11-15T02:32:13;64.28;;;36.50;;
46040;SDS011;31779;49.124;19.190;2022-11-15T02:38:26;66.13;;;38.22;;
46040;SDS011;31779;49.124;19.190;2022-11-15T02:41:50;67.95;;;36.85;;
46040;SDS011;31779;49.124;19.190;2022-11-15T02:48:08;88.70;;;38.55;;
46040;SDS011;31779;49.124;19.190;2022-11-15T02:50:55;69.13;;;39.63;;
46040;SDS011;31779;49.124;19.190;2022-11-15T02:53:42;70.10;;;36.08;;
46040;SDS011;31779;49.124;19.190;2022-11-15T02:56:30;62.70;;;35.28;;
46040;SDS011;31779;49.124;19.190;2022-11-15T02:59:23;56.58;;;34.10;;
46040;SDS011;31779;49.124;19.190;2022-11-15T03:05:37;46.95;;;32.28;;
46040;SDS011;31779;49.124;19.190;2022-11-15T03:11:33;56.45;;;34.90;;
46040;SDS011;31779;49.124;19.190;2022-11-15T03:14:29;58.00;;;32.80;;
46040;SDS011;31779;49.124;19.190;2022-11-15T03:17:27;47.63;;;32.13;;
46040;SDS011;31779;49.124;19.190;2022-11-15T03:20:41;47.70;;;29.75;;
46040;SDS011;31779;49.124;19.190;2022-11-15T03:23:29;44.20;;;29.52;;
46040;SDS011;31779;49.124;19.190;2022-11-15T03:26:18;56.97;;;33.42;;
46040;SDS011;31779;49.124;19.190;2022-11-15T03:29:11;54.72;;;32.85;;
46040;SDS011;31779;49.124;19.190;2022-11-15T03:32:06;47.90;;;34.30;;
46040;SDS011;31779;49.124;19.190;2022-11-15T03:34:58;45.15;;;29.33;;
46040;SDS011;31779;49.124;19.190;2022-11-15T03:40:59;39.83;;;28.23;;
46040;SDS011;31779;49.124;19.190;2022-11-15T03:43:55;40.53;;;26.23;;
46040;SDS011;31779;49.124;19.190;2022-11-15T03:46:46;42.17;;;27.27;;
46040;SDS011;31779;49.124;19.190;2022-11-15T03:49:52;50.70;;;32.90;;
46040;SDS011;31779;49.124;19.190;2022-11-15T03:52:42;56.55;;;33.70;;
46040;SDS011;31779;49.124;19.190;2022-11-15T03:55:32;57.58;;;32.78;;
46040;SDS011;31779;49.124;19.190;2022-11-15T03:58:18;48.88;;;32.38;;
46040;SDS011;31779;49.124;19.190;2022-11-15T04:01:05;47.22;;;32.17;;
46040;SDS011;31779;49.124;19.190;2022-11-15T04:03:51;49.83;;;30.08;;
46040;SDS011;31779;49.124;19.190;2022-11-15T04:06:37;53.17;;;28.88;;
46040;SDS011;31779;49.124;19.190;2022-11-15T04:09:23;58.25;;;32.17;;
46040;SDS011;31779;49.124;19.190;2022-11-15T04:12:09;52.20;;;31.58;;
46040;SDS011;31779;49.124;19.190;2022-11-15T04:14:59;56.08;;;32.20;;
46040;SDS011;31779;49.124;19.190;2022-11-15T04:17:53;51.10;;;30.30;;
46040;SDS011;31779;49.124;19.190;2022-11-15T04:20:42;44.50;;;26.33;;
46040;SDS011;31779;49.124;19.190;2022-11-15T04:23:47;51.60;;;29.38;;
46040;SDS011;31779;49.124;19.190;2022-11-15T04:26:51;43.45;;;29.48;;
46040;SDS011;31779;49.124;19.190;2022-11-15T04:29:37;55.28;;;31.23;;
46040;SDS011;31779;49.124;19.190;2022-11-15T04:32:24;44.55;;;28.92;;
46040;SDS011;31779;49.124;19.190;2022-11-15T04:35:10;48.95;;;28.75;;
46040;SDS011;31779;49.124;19.190;2022-11-15T04:37:57;46.05;;;29.58;;
46040;SDS011;31779;49.124;19.190;2022-11-15T04:40:44;49.33;;;28.65;;
46040;SDS011;31779;49.124;19.190;2022-11-15T04:43:30;42.45;;;31.73;;
46040;SDS011;31779;49.124;19.190;2022-11-15T04:46:17;39.22;;;27.92;;
46040;SDS011;31779;49.124;19.190;2022-11-15T04:49:03;44.65;;;28.83;;
46040;SDS011;31779;49.124;19.190;2022-11-15T04:51:50;50.00;;;28.85;;
46040;SDS011;31779;49.124;19.190;2022-11-15T04:54:36;44.20;;;28.00;;
46040;SDS011;31779;49.124;19.190;2022-11-15T04:57:23;43.65;;;27.17;;
46040;SDS011;31779;49.124;19.190;2022-11-15T05:00:10;45.22;;;30.50;;
46040;SDS011;31779;49.124;19.190;2022-11-15T05:02:58;43.92;;;28.63;;
46040;SDS011;31779;49.124;19.190;2022-11-15T05:06:03;51.90;;;28.73;;
46040;SDS011;31779;49.124;19.190;2022-11-15T05:08:50;44.17;;;28.30;;
46040;SDS011;31779;49.124;19.190;2022-11-15T05:11:37;42.33;;;27.60;;
46040;SDS011;31779;49.124;19.190;2022-11-15T05:14:24;48.08;;;30.63;;
46040;SDS011;31779;49.124;19.190;2022-11-15T05:17:10;43.80;;;29.52;;
46040;SDS011;31779;49.124;19.190;2022-11-15T05:19:56;43.03;;;30.55;;
46040;SDS011;31779;49.124;19.190;2022-11-15T05:22:43;45.90;;;31.20;;
46040;SDS011;31779;49.124;19.190;2022-11-15T05:25:29;43.58;;;28.52;;
46040;SDS011;31779;49.124;19.190;2022-11-15T05:28:15;45.20;;;29.10;;
46040;SDS011;31779;49.124;19.190;2022-11-15T05:31:11;56.17;;;35.00;;
46040;SDS011;31779;49.124;19.190;2022-11-15T05:33:59;47.47;;;31.00;;
46040;SDS011;31779;49.124;19.190;2022-11-15T05:36:47;52.30;;;31.95;;
46040;SDS011;31779;49.124;19.190;2022-11-15T05:39:34;52.78;;;33.28;;
46040;SDS011;31779;49.124;19.190;2022-11-15T05:42:20;48.58;;;34.45;;
46040;SDS011;31779;49.124;19.190;2022-11-15T05:45:06;53.47;;;36.33;;
46040;SDS011;31779;49.124;19.190;2022-11-15T05:47:54;54.97;;;36.97;;
46040;SDS011;31779;49.124;19.190;2022-11-15T05:50:43;48.05;;;35.75;;
46040;SDS011;31779;49.124;19.190;2022-11-15T05:53:32;68.05;;;50.40;;
46040;SDS011;31779;49.124;19.190;2022-11-15T05:56:19;46.10;;;35.15;;
46040;SDS011;31779;49.124;19.190;2022-11-15T05:59:07;40.88;;;31.02;;
46040;SDS011;31779;49.124;19.190;2022-11-15T06:01:54;36.88;;;26.50;;
46040;SDS011;31779;49.124;19.190;2022-11-15T06:04:41;46.53;;;28.92;;
46040;SDS011;31779;49.124;19.190;2022-11-15T06:07:28;40.40;;;28.85;;
46040;SDS011;31779;49.124;19.190;2022-11-15T06:10:15;40.05;;;30.60;;
46040;SDS011;31779;49.124;19.190;2022-11-15T06:13:03;40.60;;;30.23;;
46040;SDS011;31779;49.124;19.190;2022-11-15T06:15:50;40.15;;;30.45;;
46040;SDS011;31779;49.124;19.190;2022-11-15T06:18:36;45.15;;;29.95;;
46040;SDS011;31779;49.124;19.190;2022-11-15T06:21:23;45.03;;;30.48;;
46040;SDS011;31779;49.124;19.190;2022-11-15T06:24:09;40.20;;;30.17;;
46040;SDS011;31779;49.124;19.190;2022-11-15T06:26:56;39.25;;;29.90;;
46040;SDS011;31779;49.124;19.190;2022-11-15T06:29:43;38.13;;;28.17;;
46040;SDS011;31779;49.124;19.190;2022-11-15T06:32:29;39.00;;;26.85;;
46040;SDS011;31779;49.124;19.190;2022-11-15T06:35:16;39.03;;;28.17;;
46040;SDS011;31779;49.124;19.190;2022-11-15T06:38:04;41.33;;;28.27;;
46040;SDS011;31779;49.124;19.190;2022-11-15T06:40:52;34.97;;;26.05;;
46040;SDS011;31779;49.124;19.190;2022-11-15T06:43:38;40.95;;;26.77;;
46040;SDS011;31779;49.124;19.190;2022-11-15T06:46:25;38.00;;;26.80;;
46040;SDS011;31779;49.124;19.190;2022-11-15T06:49:12;33.85;;;25.92;;
46040;SDS011;31779;49.124;19.190;2022-11-15T06:51:59;32.10;;;25.58;;
46040;SDS011;31779;49.124;19.190;2022-11-15T06:54:45;39.40;;;28.00;;
46040;SDS011;31779;49.124;19.190;2022-11-15T06:57:32;36.40;;;26.70;;
46040;SDS011;31779;49.124;19.190;2022-11-15T07:00:19;48.20;;;30.90;;
46040;SDS011;31779;49.124;19.190;2022-11-15T07:03:06;45.50;;;30.95;;
46040;SDS011;31779;49.124;19.190;2022-11-15T07:05:55;44.53;;;30.15;;
46040;SDS011;31779;49.124;19.190;2022-11-15T07:08:51;35.47;;;26.58;;
46040;SDS011;31779;49.124;19.190;2022-11-15T07:11:37;37.40;;;28.33;;
46040;SDS011;31779;49.124;19.190;2022-11-15T07:14:23;31.00;;;24.10;;
46040;SDS011;31779;49.124;19.190;2022-11-15T07:17:10;31.10;;;24.95;;
46040;SDS011;31779;49.124;19.190;2022-11-15T07:19:56;36.80;;;26.35;;
46040;SDS011;31779;49.124;19.190;2022-11-15T07:22:43;31.35;;;23.75;;
46040;SDS011;31779;49.124;19.190;2022-11-15T07:25:32;32.75;;;26.13;;
46040;SDS011;31779;49.124;19.190;2022-11-15T07:28:19;37.10;;;26.58;;
46040;SDS011;31779;49.124;19.190;2022-11-15T07:31:07;40.45;;;27.48;;
46040;SDS011;31779;49.124;19.190;2022-11-15T07:33:53;33.33;;;25.63;;
46040;SDS011;31779;49.124;19.190;2022-11-15T07:36:39;28.70;;;23.20;;
46040;SDS011;31779;49.124;19.190;2022-11-15T07:39:26;31.92;;;26.70;;
46040;SDS011;31779;49.124;19.190;2022-11-15T07:42:12;32.58;;;25.70;;
46040;SDS011;31779;49.124;19.190;2022-11-15T07:45:17;33.50;;;25.80;;
46040;SDS011;31779;49.124;19.190;2022-11-15T07:48:04;38.08;;;25.17;;
46040;SDS011;31779;49.124;19.190;2022-11-15T07:50:51;37.88;;;27.02;;
46040;SDS011;31779;49.124;19.190;2022-11-15T07:53:37;35.95;;;29.33;;
46040;SDS011;31779;49.124;19.190;2022-11-15T07:56:23;33.65;;;28.98;;
46040;SDS011;31779;49.124;19.190;2022-11-15T07:59:09;37.67;;;30.55;;
46040;SDS011;31779;49.124;19.190;2022-11-15T08:01:55;37.90;;;29.10;;
46040;SDS011;31779;49.124;19.190;2022-11-15T08:04:42;36.15;;;26.73;;
46040;SDS011;31779;49.124;19.190;2022-11-15T08:07:30;44.05;;;33.05;;
46040;SDS011;31779;49.124;19.190;2022-11-15T08:10:16;39.80;;;29.70;;
46040;SDS011;31779;49.124;19.190;2022-11-15T08:13:05;37.60;;;27.52;;
46040;SDS011;31779;49.124;19.190;2022-11-15T08:15:59;28.77;;;24.65;;
46040;SDS011;31779;49.124;19.190;2022-11-15T08:21:32;28.63;;;22.05;;
46040;SDS011;31779;49.124;19.190;2022-11-15T08:24:18;25.85;;;22.00;;
46040;SDS011;31779;49.124;19.190;2022-11-15T08:27:06;23.20;;;20.73;;
46040;SDS011;31779;49.124;19.190;2022-11-15T08:30:00;26.85;;;20.05;;
46040;SDS011;31779;49.124;19.190;2022-11-15T08:32:47;26.40;;;23.63;;
46040;SDS011;31779;49.124;19.190;2022-11-15T08:35:34;25.27;;;22.58;;
46040;SDS011;31779;49.124;19.190;2022-11-15T08:38:20;25.98;;;22.77;;
46040;SDS011;31779;49.124;19.190;2022-11-15T08:41:06;30.15;;;23.95;;
46040;SDS011;31779;49.124;19.190;2022-11-15T08:43:56;25.15;;;22.63;;
46040;SDS011;31779;49.124;19.190;2022-11-15T08:46:44;27.38;;;23.50;;
46040;SDS011;31779;49.124;19.190;2022-11-15T08:49:31;26.33;;;23.38;;
46040;SDS011;31779;49.124;19.190;2022-11-15T08:52:18;28.70;;;23.52;;
46040;SDS011;31779;49.124;19.190;2022-11-15T08:55:05;27.98;;;22.30;;
46040;SDS011;31779;49.124;19.190;2022-11-15T08:57:51;26.30;;;22.83;;
46040;SDS011;31779;49.124;19.190;2022-11-15T09:00:37;28.13;;;23.27;;
46040;SDS011;31779;49.124;19.190;2022-11-15T09:03:24;30.42;;;25.90;;
46040;SDS011;31779;49.124;19.190;2022-11-15T09:06:10;28.40;;;25.38;;
46040;SDS011;31779;49.124;19.190;2022-11-15T09:08:57;35.60;;;27.50;;
46040;SDS011;31779;49.124;19.190;2022-11-15T09:11:44;25.88;;;22.30;;
46040;SDS011;31779;49.124;19.190;2022-11-15T09:14:32;29.42;;;24.73;;
46040;SDS011;31779;49.124;19.190;2022-11-15T09:17:18;27.75;;;23.45;;
46040;SDS011;31779;49.124;19.190;2022-11-15T09:20:24;25.98;;;22.80;;
46040;SDS011;31779;49.124;19.190;2022-11-15T09:23:11;27.30;;;24.30;;
46040;SDS011;31779;49.124;19.190;2022-11-15T09:25:58;26.77;;;22.70;;
46040;SDS011;31779;49.124;19.190;2022-11-15T09:28:46;30.80;;;27.35;;
46040;SDS011;31779;49.124;19.190;2022-11-15T09:31:33;21.63;;;19.33;;
46040;SDS011;31779;49.124;19.190;2022-11-15T09:34:19;26.25;;;23.58;;
46040;SDS011;31779;49.124;19.190;2022-11-15T09:37:06;29.40;;;26.40;;
46040;SDS011;31779;49.124;19.190;2022-11-15T09:39:52;24.42;;;22.23;;
46040;SDS011;31779;49.124;19.190;2022-11-15T09:46:11;21.98;;;19.80;;
46040;SDS011;31779;49.124;19.190;2022-11-15T09:49:06;23.23;;;20.95;;
46040;SDS011;31779;49.124;19.190;2022-11-15T09:51:54;25.23;;;22.92;;
46040;SDS011;31779;49.124;19.190;2022-11-15T09:57:11;24.48;;;22.25;;
46040;SDS011;31779;49.124;19.190;2022-11-15T10:02:34;24.45;;;22.35;;
46040;SDS011;31779;49.124;19.190;2022-11-15T10:05:04;22.23;;;20.17;;
46040;SDS011;31779;49.124;19.190;2022-11-15T10:10:39;23.27;;;21.38;;
46040;SDS011;31779;49.124;19.190;2022-11-15T10:13:43;20.88;;;19.08;;
46040;SDS011;31779;49.124;19.190;2022-11-15T10:24:43;21.27;;;19.08;;
46040;SDS011;31779;49.124;19.190;2022-11-15T10:27:16;22.38;;;20.15;;
46040;SDS011;31779;49.124;19.190;2022-11-15T10:29:46;25.92;;;23.17;;
46040;SDS011;31779;49.124;19.190;2022-11-15T10:32:16;23.45;;;20.95;;
46040;SDS011;31779;49.124;19.190;2022-11-15T10:34:46;21.88;;;19.58;;
46040;SDS011;31779;49.124;19.190;2022-11-15T10:37:26;23.52;;;20.95;;
46040;SDS011;31779;49.124;19.190;2022-11-15T10:40:05;22.75;;;19.00;;
46040;SDS011;31779;49.124;19.190;2022-11-15T10:42:44;24.23;;;21.60;;
46040;SDS011;31779;49.124;19.190;2022-11-15T10:45:26;23.88;;;20.30;;
46040;SDS011;31779;49.124;19.190;2022-11-15T10:48:39;22.92;;;20.35;;
46040;SDS011;31779;49.124;19.190;2022-11-15T10:50:49;26.40;;;22.70;;
46040;SDS011;31779;49.124;19.190;2022-11-15T10:53:32;24.67;;;21.88;;
46040;SDS011;31779;49.124;19.190;2022-11-15T10:56:08;30.45;;;25.88;;
46040;SDS011;31779;49.124;19.190;2022-11-15T10:58:43;36.25;;;28.98;;
46040;SDS011;31779;49.124;19.190;2022-11-15T11:01:18;34.70;;;28.17;;
46040;SDS011;31779;49.124;19.190;2022-11-15T11:04:05;36.80;;;26.77;;
46040;SDS011;31779;49.124;19.190;2022-11-15T11:06:56;28.48;;;23.98;;
46040;SDS011;31779;49.124;19.190;2022-11-15T11:12:05;25.88;;;21.15;;
46040;SDS011;31779;49.124;19.190;2022-11-15T11:14:38;24.95;;;21.42;;
46040;SDS011;31779;49.124;19.190;2022-11-15T11:19:52;27.75;;;22.48;;
46040;SDS011;31779;49.124;19.190;2022-11-15T11:22:35;26.77;;;23.48;;
46040;SDS011;31779;49.124;19.190;2022-11-15T11:33:27;28.77;;;23.42;;
46040;SDS011;31779;49.124;19.190;2022-11-15T11:36:30;31.83;;;24.52;;
46040;SDS011;31779;49.124;19.190;2022-11-15T11:39:14;31.38;;;23.85;;
46040;SDS011;31779;49.124;19.190;2022-11-15T11:47:47;34.50;;;26.05;;
46040;SDS011;31779;49.124;19.190;2022-11-15T11:50:22;30.77;;;25.65;;
46040;SDS011;31779;49.124;19.190;2022-11-15T11:55:54;33.90;;;27.08;;
46040;SDS011;31779;49.124;19.190;2022-11-15T12:11:46;44.90;;;38.65;;
46040;SDS011;31779;49.124;19.190;2022-11-15T12:17:16;31.15;;;23.67;;
46040;SDS011;31779;49.124;19.190;2022-11-15T12:19:47;32.95;;;27.98;;
46040;SDS011;31779;49.124;19.190;2022-11-15T12:24:55;26.27;;;21.88;;
46040;SDS011;31779;49.124;19.190;2022-11-15T12:30:08;35.47;;;25.33;;
46040;SDS011;31779;49.124;19.190;2022-11-15T12:32:53;43.92;;;36.88;;
46040;SDS011;31779;49.124;19.190;2022-11-15T12:35:25;30.70;;;25.45;;
46040;SDS011;31779;49.124;19.190;2022-11-15T12:38:03;28.50;;;24.63;;
46040;SDS011;31779;49.124;19.190;2022-11-15T12:40:32;29.85;;;26.27;;
46040;SDS011;31779;49.124;19.190;2022-11-15T12:45:36;34.08;;;26.70;;
46040;SDS011;31779;49.124;19.190;2022-11-15T12:56:17;33.60;;;25.13;;
46040;SDS011;31779;49.124;19.190;2022-11-15T12:58:49;35.20;;;27.50;;
46040;SDS011;31779;49.124;19.190;2022-11-15T13:04:35;33.33;;;26.05;;
46040;SDS011;31779;49.124;19.190;2022-11-15T13:06:58;40.60;;;30.38;;
46040;SDS011;31779;49.124;19.190;2022-11-15T13:12:03;39.65;;;32.17;;
46040;SDS011;31779;49.124;19.190;2022-11-15T13:20:33;35.10;;;28.83;;
46040;SDS011;31779;49.124;19.190;2022-11-15T13:22:45;40.90;;;29.73;;
46040;SDS011;31779;49.124;19.190;2022-11-15T13:28:18;41.33;;;29.08;;
46040;SDS011;31779;49.124;19.190;2022-11-15T13:31:13;35.92;;;27.80;;
46040;SDS011;31779;49.124;19.190;2022-11-15T13:33:55;45.67;;;35.33;;
46040;SDS011;31779;49.124;19.190;2022-11-15T13:36:26;43.80;;;34.50;;
46040;SDS011;31779;49.124;19.190;2022-11-15T13:41:30;41.97;;;36.90;;
46040;SDS011;31779;49.124;19.190;2022-11-15T13:44:00;58.15;;;46.65;;
46040;SDS011;31779;49.124;19.190;2022-11-15T13:46:29;61.28;;;44.75;;
46040;SDS011;31779;49.124;19.190;2022-11-15T13:49:03;65.47;;;50.95;;
46040;SDS011;31779;49.124;19.190;2022-11-15T13:56:45;82.35;;;58.33;;
46040;SDS011;31779;49.124;19.190;2022-11-15T13:59:27;105.32;;;73.72;;
46040;SDS011;31779;49.124;19.190;2022-11-15T14:01:58;88.53;;;65.88;;
46040;SDS011;31779;49.124;19.190;2022-11-15T14:04:30;86.55;;;69.07;;
46040;SDS011;31779;49.124;19.190;2022-11-15T14:07:01;67.78;;;60.38;;
46040;SDS011;31779;49.124;19.190;2022-11-15T14:12:22;57.63;;;44.95;;
46040;SDS011;31779;49.124;19.190;2022-11-15T14:14:52;55.00;;;39.05;;
46040;SDS011;31779;49.124;19.190;2022-11-15T14:17:32;68.47;;;50.63;;
46040;SDS011;31779;49.124;19.190;2022-11-15T14:20:02;60.17;;;45.42;;
46040;SDS011;31779;49.124;19.190;2022-11-15T14:22:57;64.85;;;50.97;;
46040;SDS011;31779;49.124;19.190;2022-11-15T14:25:33;85.07;;;66.05;;
46040;SDS011;31779;49.124;19.190;2022-11-15T14:28:10;73.93;;;61.38;;
46040;SDS011;31779;49.124;19.190;2022-11-15T14:30:38;71.18;;;58.47;;
46040;SDS011;31779;49.124;19.190;2022-11-15T14:33:17;75.30;;;57.08;;
46040;SDS011;31779;49.124;19.190;2022-11-15T14:36:11;67.28;;;52.55;;
46040;SDS011;31779;49.124;19.190;2022-11-15T14:38:44;61.38;;;50.90;;
46040;SDS011;31779;49.124;19.190;2022-11-15T14:41:22;59.38;;;44.83;;
46040;SDS011;31779;49.124;19.190;2022-11-15T14:43:52;56.80;;;42.22;;
46040;SDS011;31779;49.124;19.190;2022-11-15T14:46:20;58.95;;;45.08;;
46040;SDS011;31779;49.124;19.190;2022-11-15T14:48:48;59.13;;;46.17;;
46040;SDS011;31779;49.124;19.190;2022-11-15T14:51:16;59.60;;;47.83;;
46040;SDS011;31779;49.124;19.190;2022-11-15T14:53:45;62.28;;;46.90;;
46040;SDS011;31779;49.124;19.190;2022-11-15T14:56:14;56.10;;;43.70;;
46040;SDS011;31779;49.124;19.190;2022-11-15T14:58:43;51.40;;;40.22;;
46040;SDS011;31779;49.124;19.190;2022-11-15T15:01:19;55.05;;;41.83;;
46040;SDS011;31779;49.124;19.190;2022-11-15T15:03:51;55.15;;;40.80;;
46040;SDS011;31779;49.124;19.190;2022-11-15T15:06:22;52.80;;;39.75;;
46040;SDS011;31779;49.124;19.190;2022-11-15T15:08:50;53.38;;;36.15;;
46040;SDS011;31779;49.124;19.190;2022-11-15T15:11:29;55.13;;;41.33;;
46040;SDS011;31779;49.124;19.190;2022-11-15T15:13:57;50.42;;;35.83;;
46040;SDS011;31779;49.124;19.190;2022-11-15T15:16:28;47.10;;;33.95;;
46040;SDS011;31779;49.124;19.190;2022-11-15T15:18:56;42.10;;;34.03;;
46040;SDS011;31779;49.124;19.190;2022-11-15T15:21:24;45.88;;;35.60;;
46040;SDS011;31779;49.124;19.190;2022-11-15T15:24:03;49.45;;;33.83;;
46040;SDS011;31779;49.124;19.190;2022-11-15T15:26:31;42.92;;;32.28;;
46040;SDS011;31779;49.124;19.190;2022-11-15T15:29:03;39.92;;;28.88;;
46040;SDS011;31779;49.124;19.190;2022-11-15T15:31:31;42.88;;;31.27;;
46040;SDS011;31779;49.124;19.190;2022-11-15T15:34:00;42.88;;;32.50;;
46040;SDS011;31779;49.124;19.190;2022-11-15T15:36:28;46.08;;;32.40;;
46040;SDS011;31779;49.124;19.190;2022-11-15T15:38:56;47.17;;;34.92;;
46040;SDS011;31779;49.124;19.190;2022-11-15T15:41:24;52.65;;;39.95;;
46040;SDS011;31779;49.124;19.190;2022-11-15T15:43:52;57.53;;;43.58;;
46040;SDS011;31779;49.124;19.190;2022-11-15T15:46:20;49.13;;;38.60;;
46040;SDS011;31779;49.124;19.190;2022-11-15T15:48:48;51.33;;;40.25;;
46040;SDS011;31779;49.124;19.190;2022-11-15T15:51:16;50.53;;;40.08;;
46040;SDS011;31779;49.124;19.190;2022-11-15T15:53:47;44.90;;;33.28;;
46040;SDS011;31779;49.124;19.190;2022-11-15T15:56:15;45.50;;;32.53;;
46040;SDS011;31779;49.124;19.190;2022-11-15T15:58:43;43.20;;;30.50;;
46040;SDS011;31779;49.124;19.190;2022-11-15T16:01:11;45.38;;;33.53;;
46040;SDS011;31779;49.124;19.190;2022-11-15T16:03:39;39.83;;;28.65;;
46040;SDS011;31779;49.124;19.190;2022-11-15T16:06:25;48.33;;;32.85;;
46040;SDS011;31779;49.124;19.190;2022-11-15T16:09:01;40.08;;;29.98;;
46040;SDS011;31779;49.124;19.190;2022-11-15T16:11:46;45.38;;;31.45;;
46040;SDS011;31779;49.124;19.190;2022-11-15T16:14:15;45.30;;;34.60;;
46040;SDS011;31779;49.124;19.190;2022-11-15T16:16:43;45.00;;;32.05;;
46040;SDS011;31779;49.124;19.190;2022-11-15T16:19:11;43.22;;;33.45;;
46040;SDS011;31779;49.124;19.190;2022-11-15T16:21:39;39.70;;;29.92;;
46040;SDS011;31779;49.124;19.190;2022-11-15T16:24:07;40.88;;;29.33;;
46040;SDS011;31779;49.124;19.190;2022-11-15T16:26:35;48.50;;;37.03;;
46040;SDS011;31779;49.124;19.190;2022-11-15T16:29:04;51.88;;;37.97;;
46040;SDS011;31779;49.124;19.190;2022-11-15T16:31:33;48.35;;;35.88;;
46040;SDS011;31779;49.124;19.190;2022-11-15T16:34:02;47.00;;;34.33;;
46040;SDS011;31779;49.124;19.190;2022-11-15T16:36:30;44.40;;;32.55;;
46040;SDS011;31779;49.124;19.190;2022-11-15T16:39:01;42.30;;;30.70;;
46040;SDS011;31779;49.124;19.190;2022-11-15T16:41:32;49.47;;;37.60;;
46040;SDS011;31779;49.124;19.190;2022-11-15T16:44:00;52.53;;;42.30;;
46040;SDS011;31779;49.124;19.190;2022-11-15T16:46:28;51.35;;;39.97;;
46040;SDS011;31779;49.124;19.190;2022-11-15T16:48:58;53.42;;;41.72;;
46040;SDS011;31779;49.124;19.190;2022-11-15T16:51:26;53.95;;;39.53;;
46040;SDS011;31779;49.124;19.190;2022-11-15T16:53:53;54.45;;;41.03;;
46040;SDS011;31779;49.124;19.190;2022-11-15T16:58:56;62.35;;;45.53;;
46040;SDS011;31779;49.124;19.190;2022-11-15T17:01:36;56.83;;;43.90;;
46040;SDS011;31779;49.124;19.190;2022-11-15T17:04:12;59.83;;;47.60;;
46040;SDS011;31779;49.124;19.190;2022-11-15T17:06:43;60.40;;;51.55;;
46040;SDS011;31779;49.124;19.190;2022-11-15T17:11:45;57.42;;;44.63;;
46040;SDS011;31779;49.124;19.190;2022-11-15T17:14:14;54.20;;;44.38;;
46040;SDS011;31779;49.124;19.190;2022-11-15T17:16:43;59.75;;;47.58;;
46040;SDS011;31779;49.124;19.190;2022-11-15T17:19:12;53.90;;;42.78;;
46040;SDS011;31779;49.124;19.190;2022-11-15T17:21:42;55.97;;;47.53;;
46040;SDS011;31779;49.124;19.190;2022-11-15T17:24:11;58.40;;;45.95;;
46040;SDS011;31779;49.124;19.190;2022-11-15T17:26:39;70.18;;;58.25;;
46040;SDS011;31779;49.124;19.190;2022-11-15T17:29:09;87.32;;;69.50;;
46040;SDS011;31779;49.124;19.190;2022-11-15T17:31:37;86.85;;;68.97;;
46040;SDS011;31779;49.124;19.190;2022-11-15T17:34:07;117.55;;;90.57;;
46040;SDS011;31779;49.124;19.190;2022-11-15T17:36:35;113.78;;;86.63;;
46040;SDS011;31779;49.124;19.190;2022-11-15T17:39:06;109.35;;;83.55;;
46040;SDS011;31779;49.124;19.190;2022-11-15T17:41:35;120.43;;;89.05;;
46040;SDS011;31779;49.124;19.190;2022-11-15T17:44:03;93.35;;;75.63;;
46040;SDS011;31779;49.124;19.190;2022-11-15T17:46:32;103.43;;;80.32;;
46040;SDS011;31779;49.124;19.190;2022-11-15T17:49:00;103.55;;;83.03;;